createdAt,value
2022-09-23T00:01:34.984Z,7.00
2022-09-23T00:04:03.041Z,6.90
2022-09-23T00:06:30.925Z,6.80
2022-09-23T00:08:58.864Z,6.90
2022-09-23T00:11:29.131Z,6.90
2022-09-23T00:13:59.582Z,6.90
2022-09-23T00:16:30.881Z,6.90
2022-09-23T00:18:59.043Z,6.90
2022-09-23T00:21:26.892Z,6.90
2022-09-23T00:23:54.847Z,6.80
2022-09-23T00:26:23.859Z,6.70
2022-09-23T00:28:52.305Z,6.70
2022-09-23T00:31:23.708Z,6.70
2022-09-23T00:33:58.531Z,6.80
2022-09-23T00:36:27.415Z,6.80
2022-09-23T00:38:56.131Z,6.80
2022-09-23T00:41:24.550Z,6.70
2022-09-23T00:43:59.389Z,6.70
2022-09-23T00:46:38.246Z,6.60
2022-09-23T00:49:17.794Z,6.60
2022-09-23T00:51:55.603Z,6.60
2022-09-23T00:54:27.294Z,6.60
2022-09-23T00:56:56.355Z,6.60
2022-09-23T01:03:51.359Z,6.40
2022-09-23T01:06:22.531Z,6.40
2022-09-23T01:08:51.067Z,6.40
2022-09-23T01:11:24.910Z,6.50
2022-09-23T01:14:18.241Z,6.50
2022-09-23T01:17:04.387Z,6.40
2022-09-23T01:19:44.212Z,6.40
2022-09-23T01:22:25.058Z,6.30
2022-09-23T01:25:03.735Z,6.30
2022-09-23T01:28:09.421Z,6.20
2022-09-23T01:30:46.052Z,6.20
2022-09-23T01:33:36.379Z,6.20
2022-09-23T01:36:25.288Z,6.20
2022-09-23T01:39:13.721Z,6.30
2022-09-23T01:41:55.304Z,6.30
2022-09-23T01:44:23.085Z,6.40
2022-09-23T01:47:11.966Z,6.40
2022-09-23T01:50:30.535Z,6.40
2022-09-23T01:53:03.645Z,6.20
2022-09-23T01:55:36.139Z,6.20
2022-09-23T01:58:19.944Z,6.20
2022-09-23T02:01:05.750Z,6.20
2022-09-23T02:03:51.323Z,6.20
2022-09-23T02:06:31.103Z,6.10
2022-09-23T02:09:03.096Z,6.10
2022-09-23T02:11:37.374Z,6.10
2022-09-23T02:14:20.875Z,6.00
2022-09-23T02:17:01.895Z,6.00
2022-09-23T02:19:45.526Z,6.00
2022-09-23T02:22:29.032Z,6.00
2022-09-23T02:24:58.740Z,6.00
2022-09-23T02:27:52.687Z,6.00
2022-09-23T02:30:28.213Z,5.90
2022-09-23T02:33:02.191Z,5.90
2022-09-23T02:35:34.194Z,5.80
2022-09-23T02:38:20.578Z,5.80
2022-09-23T02:40:59.920Z,5.80
2022-09-23T02:43:40.358Z,5.80
2022-09-23T02:46:08.850Z,5.80
2022-09-23T02:48:42.922Z,5.80
2022-09-23T02:51:11.615Z,5.80
2022-09-23T02:53:40.023Z,5.80
2022-09-23T02:56:22.078Z,5.80
2022-09-23T02:58:52.902Z,5.70
2022-09-23T03:01:55.393Z,5.60
2022-09-23T03:04:51.576Z,5.70
2022-09-23T03:07:22.164Z,5.70
2022-09-23T03:10:22.053Z,5.60
2022-09-23T03:12:54.039Z,5.60
2022-09-23T03:15:40.887Z,5.60
2022-09-23T03:18:38.191Z,5.60
2022-09-23T03:21:20.836Z,5.60
2022-09-23T03:23:50.210Z,5.60
2022-09-23T03:26:24.180Z,5.60
2022-09-23T03:28:54.031Z,5.50
2022-09-23T03:31:22.111Z,5.50
2022-09-23T03:33:55.576Z,5.60
2022-09-23T03:36:47.825Z,5.60
2022-09-23T03:39:26.825Z,5.50
2022-09-23T03:42:00.315Z,5.50
2022-09-23T03:44:30.110Z,5.50
2022-09-23T03:47:03.407Z,5.30
2022-09-23T03:49:36.149Z,5.30
2022-09-23T03:52:04.667Z,5.20
2022-09-23T03:54:33.428Z,5.20
2022-09-23T03:57:03.166Z,5.10
2022-09-23T03:59:31.883Z,5.10
2022-09-23T04:02:00.632Z,5.10
2022-09-23T04:04:28.770Z,5.10
2022-09-23T04:06:57.399Z,5.00
2022-09-23T04:09:25.386Z,5.00
2022-09-23T04:11:54.231Z,5.10
2022-09-23T04:14:23.397Z,5.00
2022-09-23T04:16:52.193Z,5.00
2022-09-23T04:19:20.465Z,5.00
2022-09-23T04:21:48.831Z,5.00
2022-09-23T04:24:17.880Z,5.00
2022-09-23T04:26:45.731Z,5.00
2022-09-23T04:29:13.654Z,5.00
2022-09-23T04:31:41.597Z,5.00
2022-09-23T04:34:10.146Z,5.00
2022-09-23T04:36:38.159Z,5.00
2022-09-23T04:39:06.772Z,5.00
2022-09-23T04:41:34.824Z,5.00
2022-09-23T04:44:02.958Z,5.00
2022-09-23T04:46:31.103Z,5.00
2022-09-23T04:48:59.347Z,5.00
2022-09-23T04:51:28.310Z,5.00
2022-09-23T04:53:57.165Z,4.90
2022-09-23T04:56:27.965Z,4.90
2022-09-23T04:58:57.626Z,4.90
2022-09-23T05:01:28.569Z,4.90
2022-09-23T05:04:03.884Z,5.00
2022-09-23T05:06:34.086Z,5.00
2022-09-23T05:09:06.665Z,5.00
2022-09-23T05:11:35.230Z,4.90
2022-09-23T05:14:03.192Z,5.00
2022-09-23T05:16:31.323Z,4.80
2022-09-23T05:18:59.469Z,4.80
2022-09-23T05:21:32.455Z,4.90
2022-09-23T05:24:01.673Z,4.90
2022-09-23T05:26:32.714Z,4.90
2022-09-23T05:29:01.071Z,4.90
2022-09-23T05:31:30.921Z,5.00
2022-09-23T05:34:04.610Z,5.00
2022-09-23T05:36:38.162Z,5.00
2022-09-23T05:39:08.836Z,5.10
2022-09-23T05:41:37.410Z,5.00
2022-09-23T05:44:05.377Z,5.00
2022-09-23T05:46:34.257Z,5.10
2022-09-23T05:49:03.712Z,5.10
2022-09-23T05:51:33.426Z,5.10
2022-09-23T05:54:03.937Z,5.20
2022-09-23T05:56:33.377Z,5.20
2022-09-23T05:59:02.955Z,5.40
2022-09-23T06:01:53.194Z,5.40
2022-09-23T06:04:23.743Z,5.50
2022-09-23T06:06:51.815Z,5.60
2022-09-23T06:09:19.896Z,5.70
2022-09-23T06:11:47.885Z,5.90
2022-09-23T06:14:16.068Z,6.10
2022-09-23T06:16:44.191Z,6.50
2022-09-23T06:19:12.404Z,6.90
2022-09-23T06:21:41.991Z,7.20
2022-09-23T06:24:13.811Z,7.70
2022-09-23T06:26:44.738Z,8.30
2022-09-23T06:29:14.022Z,8.90
2022-09-23T06:31:43.042Z,9.30
2022-09-23T06:34:13.702Z,9.60
2022-09-23T06:36:45.463Z,9.90
2022-09-23T06:39:17.628Z,10.10
2022-09-23T06:41:53.958Z,10.30
2022-09-23T06:44:25.119Z,10.50
2022-09-23T06:46:57.160Z,10.70
2022-09-23T06:49:25.516Z,11.00
2022-09-23T06:52:07.490Z,11.30
2022-09-23T06:54:35.783Z,11.70
2022-09-23T06:57:04.163Z,12.10
2022-09-23T06:59:52.955Z,12.60
2022-09-23T07:02:21.305Z,13.10
2022-09-23T07:04:49.442Z,13.70
2022-09-23T07:07:17.508Z,14.10
2022-09-23T07:09:46.411Z,14.30
2022-09-23T07:12:14.303Z,14.50
2022-09-23T07:14:42.265Z,14.70
2022-09-23T07:17:10.227Z,15.10
2022-09-23T07:19:41.164Z,15.40
2022-09-23T07:22:09.107Z,15.50
2022-09-23T07:24:37.039Z,15.70
2022-09-23T07:27:05.098Z,15.80
2022-09-23T07:29:45.003Z,15.80
2022-09-23T07:32:16.372Z,15.40
2022-09-23T07:34:45.458Z,15.70
2022-09-23T07:37:13.510Z,16.20
2022-09-23T07:39:43.043Z,17.00
2022-09-23T07:50:43.290Z,17.70
2022-09-23T07:53:14.959Z,18.30
2022-09-23T07:55:44.341Z,18.60
2022-09-23T07:58:13.016Z,19.00
2022-09-23T08:00:41.862Z,19.20
2022-09-23T08:03:11.356Z,19.30
2022-09-23T08:05:40.118Z,19.50
2022-09-23T08:08:08.412Z,19.70
2022-09-23T08:10:36.605Z,19.80
2022-09-23T08:13:05.104Z,19.90
2022-09-23T08:15:36.409Z,20.00
2022-09-23T08:18:04.695Z,20.10
2022-09-23T08:20:47.348Z,20.00
2022-09-23T08:23:17.952Z,20.10
2022-09-23T08:25:49.521Z,20.20
2022-09-23T08:28:20.260Z,20.30
2022-09-23T08:30:50.724Z,20.60
2022-09-23T08:33:23.321Z,20.60
2022-09-23T08:36:00.463Z,20.90
2022-09-23T08:38:28.886Z,21.10
2022-09-23T08:41:26.710Z,21.10
2022-09-23T08:44:15.120Z,21.20
2022-09-23T08:50:25.264Z,20.90
2022-09-23T08:53:16.173Z,20.80
2022-09-23T08:59:20.886Z,20.40
2022-09-23T09:02:32.812Z,20.40
2022-09-23T09:05:34.673Z,20.50
2022-09-23T09:08:26.569Z,20.90
2022-09-23T09:11:01.606Z,21.40
2022-09-23T09:13:37.805Z,21.90
2022-09-23T09:16:59.387Z,22.20
2022-09-23T09:19:48.651Z,22.00
2022-09-23T09:23:03.431Z,21.60
2022-09-23T09:26:08.114Z,21.20
2022-09-23T09:29:23.799Z,21.00
2022-09-23T09:31:55.475Z,21.10
2022-09-23T09:34:39.044Z,21.50
2022-09-23T09:37:38.099Z,21.60
2022-09-23T09:40:12.923Z,21.70
2022-09-23T09:42:47.281Z,21.70
2022-09-23T09:45:40.946Z,21.30
2022-09-23T09:48:32.119Z,21.20
2022-09-23T09:51:24.992Z,20.90
2022-09-23T09:57:35.328Z,20.80
2022-09-23T10:00:23.647Z,20.90
2022-09-23T10:02:55.395Z,20.90
2022-09-23T10:05:47.899Z,20.50
2022-09-23T10:08:25.697Z,20.10
2022-09-23T10:11:00.315Z,20.10
2022-09-23T10:13:30.466Z,20.10
2022-09-23T10:16:00.935Z,20.20
2022-09-23T10:18:49.051Z,20.50
2022-09-23T10:21:19.262Z,20.60
2022-09-23T10:23:53.198Z,20.70
2022-09-23T10:26:37.673Z,20.50
2022-09-23T10:29:25.329Z,20.40
2022-09-23T10:32:26.740Z,20.40
2022-09-23T10:34:58.136Z,20.40
2022-09-23T10:37:43.564Z,20.50
2022-09-23T10:40:49.849Z,20.70
2022-09-23T10:43:46.476Z,20.60
2022-09-23T10:46:40.478Z,20.50
2022-09-23T10:49:50.975Z,20.50
2022-09-23T10:52:43.973Z,20.50
2022-09-23T10:55:37.804Z,20.50
2022-09-23T10:58:36.753Z,20.40
2022-09-23T11:01:36.373Z,20.60
2022-09-23T11:04:19.616Z,20.60
2022-09-23T11:07:10.870Z,20.60
2022-09-23T11:09:55.852Z,20.40
2022-09-23T11:12:39.502Z,20.30
2022-09-23T11:15:20.203Z,20.00
2022-09-23T11:18:26.229Z,19.80
2022-09-23T11:21:02.016Z,19.80
2022-09-23T11:23:55.583Z,19.80
2022-09-23T11:27:09.159Z,19.90
2022-09-23T11:29:52.009Z,20.00
2022-09-23T11:32:58.124Z,20.00
2022-09-23T11:35:37.746Z,20.00
2022-09-23T11:38:32.334Z,20.00
2022-09-23T11:41:22.835Z,20.00
2022-09-23T11:44:04.480Z,20.20
2022-09-23T11:46:53.926Z,20.50
2022-09-23T11:49:37.823Z,20.80
2022-09-23T11:52:28.802Z,20.70
2022-09-23T11:55:22.620Z,20.80
2022-09-23T11:57:59.154Z,20.70
2022-09-23T12:00:35.223Z,20.70
2022-09-23T12:03:40.062Z,20.60
2022-09-23T12:06:25.767Z,20.40
2022-09-23T12:09:00.191Z,20.60
2022-09-23T12:11:36.773Z,20.60
2022-09-23T12:14:30.558Z,20.70
2022-09-23T12:17:24.843Z,20.80
2022-09-23T12:20:01.590Z,20.70
2022-09-23T12:22:59.043Z,20.70
2022-09-23T12:25:57.526Z,20.90
2022-09-23T12:28:29.330Z,21.10
2022-09-23T12:31:00.199Z,21.20
2022-09-23T12:33:34.370Z,21.40
2022-09-23T12:36:08.263Z,21.30
2022-09-23T12:38:37.797Z,21.20
2022-09-23T12:41:25.055Z,21.20
2022-09-23T12:43:57.378Z,21.30
2022-09-23T12:46:28.427Z,21.60
2022-09-23T12:48:58.664Z,21.90
2022-09-23T12:51:31.200Z,21.70
2022-09-23T12:54:15.741Z,21.40
2022-09-23T12:56:44.593Z,21.50
2022-09-23T12:59:15.679Z,21.80
2022-09-23T13:01:44.705Z,22.10
2022-09-23T13:04:52.353Z,22.30
2022-09-23T13:07:48.511Z,22.20
2022-09-23T13:10:33.812Z,22.20
2022-09-23T13:13:07.206Z,22.10
2022-09-23T13:15:44.859Z,22.20
2022-09-23T13:18:22.204Z,22.40
2022-09-23T13:20:56.052Z,22.20
2022-09-23T13:23:29.231Z,22.20
2022-09-23T13:26:00.443Z,22.00
2022-09-23T13:28:28.622Z,22.10
2022-09-23T13:30:57.137Z,22.00
2022-09-23T13:33:48.432Z,22.10
2022-09-23T13:36:19.843Z,22.10
2022-09-23T13:38:51.561Z,22.20
2022-09-23T13:41:29.827Z,22.20
2022-09-23T13:44:00.102Z,22.20
2022-09-23T13:46:47.349Z,22.40
2022-09-23T13:49:25.948Z,22.30
2022-09-23T13:51:56.290Z,22.30
2022-09-23T13:54:36.598Z,22.20
2022-09-23T13:57:05.657Z,22.20
2022-09-23T13:59:43.414Z,22.10
2022-09-23T14:02:17.929Z,22.30
2022-09-23T14:04:47.041Z,22.30
2022-09-23T14:07:17.766Z,22.10
2022-09-23T14:12:24.033Z,22.10
2022-09-23T14:14:53.514Z,22.10
2022-09-23T14:17:24.647Z,22.30
2022-09-23T14:19:52.873Z,22.60
2022-09-23T14:22:30.706Z,22.70
2022-09-23T14:24:59.579Z,22.50
2022-09-23T14:27:34.457Z,22.60
2022-09-23T14:30:04.497Z,22.60
2022-09-23T14:32:33.567Z,22.70
2022-09-23T14:35:01.398Z,22.50
2022-09-23T14:38:07.312Z,22.50
2022-09-23T14:41:18.980Z,22.30
2022-09-23T14:43:55.703Z,22.20
2022-09-23T14:46:25.741Z,22.10
2022-09-23T14:49:11.558Z,22.30
2022-09-23T14:51:46.760Z,22.40
2022-09-23T14:54:37.941Z,22.20
2022-09-23T14:57:25.031Z,21.70
2022-09-23T14:59:57.118Z,21.70
2022-09-23T15:02:32.908Z,21.60
2022-09-23T15:05:24.436Z,21.40
2022-09-23T15:07:59.923Z,21.10
2022-09-23T15:10:36.249Z,21.00
2022-09-23T15:13:31.643Z,21.00
2022-09-23T15:19:05.282Z,20.60
2022-09-23T15:21:56.250Z,20.60
2022-09-23T15:25:08.450Z,20.50
2022-09-23T15:27:44.063Z,20.50
2022-09-23T15:36:21.549Z,20.20
2022-09-23T15:38:53.865Z,20.20
2022-09-23T15:41:30.013Z,20.20
2022-09-23T15:43:59.359Z,20.20
2022-09-23T15:46:29.521Z,20.20
2022-09-23T15:48:58.937Z,20.20
2022-09-23T15:51:30.031Z,20.30
2022-09-23T15:53:59.893Z,20.40
2022-09-23T15:56:31.662Z,20.30
2022-09-23T15:59:00.203Z,20.20
2022-09-23T16:01:32.232Z,19.80
2022-09-23T16:04:05.485Z,19.70
2022-09-23T16:06:34.176Z,19.50
2022-09-23T16:09:03.898Z,19.40
2022-09-23T16:11:37.038Z,19.40
2022-09-23T16:14:16.013Z,19.30
2022-09-23T16:16:46.794Z,19.20
2022-09-23T16:19:19.153Z,19.10
2022-09-23T16:21:47.715Z,19.00
2022-09-23T16:24:19.987Z,18.60
2022-09-23T16:27:16.359Z,18.40
2022-09-23T16:29:49.052Z,18.20
2022-09-23T16:35:30.088Z,17.70
2022-09-23T16:40:47.435Z,16.80
2022-09-23T16:43:44.152Z,16.70
2022-09-23T16:46:20.699Z,16.30
2022-09-23T16:48:52.916Z,16.00
2022-09-23T16:51:27.660Z,15.90
2022-09-23T16:53:57.365Z,15.90
2022-09-23T16:56:29.249Z,15.80
2022-09-23T16:58:58.096Z,15.70
2022-09-23T17:01:47.061Z,15.70
2022-09-23T17:04:17.872Z,15.60
2022-09-23T17:06:51.122Z,15.50
2022-09-23T17:09:21.003Z,15.30
2022-09-23T17:12:02.398Z,15.30
2022-09-23T17:14:32.530Z,15.30
2022-09-23T17:17:00.423Z,15.10
2022-09-23T17:19:28.334Z,14.90
2022-09-23T17:21:56.234Z,14.80
2022-09-23T17:24:24.640Z,14.70
2022-09-23T17:26:53.534Z,14.50
2022-09-23T17:29:21.835Z,14.40
2022-09-23T17:31:49.886Z,14.30
2022-09-23T17:34:19.841Z,14.30
2022-09-23T17:36:47.731Z,14.20
2022-09-23T17:39:15.581Z,14.00
2022-09-23T17:41:43.439Z,13.90
2022-09-23T17:44:12.450Z,13.80
2022-09-23T17:46:40.392Z,13.70
2022-09-23T17:49:09.539Z,13.60
2022-09-23T17:51:37.845Z,13.50
2022-09-23T17:54:05.840Z,13.50
2022-09-23T17:56:34.988Z,13.50
2022-09-23T17:59:03.794Z,13.40
2022-09-23T18:01:31.965Z,13.20
2022-09-23T18:04:02.335Z,13.20
2022-09-23T18:06:32.768Z,13.20
2022-09-23T18:09:03.005Z,13.20
2022-09-23T18:11:33.281Z,13.10
2022-09-23T18:14:03.678Z,13.00
2022-09-23T18:16:40.560Z,12.90
2022-09-23T18:19:11.420Z,12.60
2022-09-23T18:21:42.049Z,12.60
2022-09-23T18:24:31.336Z,12.70
2022-09-23T18:27:00.782Z,12.60
2022-09-23T18:29:29.233Z,12.60
2022-09-23T18:31:57.207Z,12.60
2022-09-23T18:34:26.317Z,12.60
2022-09-23T18:36:57.200Z,12.50
2022-09-23T18:39:25.127Z,12.40
2022-09-23T18:41:53.038Z,12.10
2022-09-23T18:44:21.260Z,11.90
2022-09-23T18:46:49.150Z,12.00
2022-09-23T18:49:35.580Z,12.10
2022-09-23T18:52:06.132Z,12.00
2022-09-23T18:54:34.109Z,12.00
2022-09-23T18:57:03.798Z,12.10
2022-09-23T18:59:34.475Z,12.10
2022-09-23T19:02:02.698Z,12.00
2022-09-23T19:04:30.673Z,12.10
2022-09-23T19:06:59.005Z,12.10
2022-09-23T19:09:26.938Z,12.10
2022-09-23T19:11:54.946Z,12.00
2022-09-23T19:14:22.907Z,11.90
2022-09-23T19:16:51.756Z,11.80
2022-09-23T19:19:19.759Z,11.60
2022-09-23T19:21:47.713Z,11.50
2022-09-23T19:24:20.801Z,11.50
2022-09-23T19:26:49.542Z,11.60
2022-09-23T19:29:22.841Z,11.50
2022-09-23T19:31:51.913Z,11.50
2022-09-23T19:34:24.752Z,11.30
2022-09-23T19:36:53.871Z,11.40
2022-09-23T19:39:27.865Z,11.40
2022-09-23T19:41:59.915Z,11.50
2022-09-23T19:44:28.326Z,11.50
2022-09-23T19:46:57.282Z,11.40
2022-09-23T19:49:26.328Z,11.50
2022-09-23T19:51:56.625Z,11.50
2022-09-23T19:54:27.818Z,11.60
2022-09-23T19:56:59.023Z,11.60
2022-09-23T19:59:34.644Z,11.50
2022-09-23T20:02:03.701Z,11.40
2022-09-23T20:04:31.694Z,11.40
2022-09-23T20:06:59.566Z,11.30
2022-09-23T20:09:30.018Z,11.30
2022-09-23T20:11:58.676Z,11.40
2022-09-23T20:14:28.170Z,11.40
2022-09-23T20:16:56.174Z,11.40
2022-09-23T20:19:24.008Z,11.50
2022-09-23T20:22:13.611Z,11.50
2022-09-23T20:24:41.568Z,11.50
2022-09-23T20:27:12.486Z,11.50
2022-09-23T20:29:40.440Z,11.50
2022-09-23T20:32:08.334Z,11.50
2022-09-23T20:34:36.285Z,11.50
2022-09-23T20:37:06.606Z,11.50
2022-09-23T20:39:34.609Z,11.50
2022-09-23T20:42:03.771Z,11.40
2022-09-23T20:44:31.654Z,11.40
2022-09-23T20:46:59.555Z,11.40
2022-09-23T20:49:27.563Z,11.20
2022-09-23T20:51:55.450Z,11.10
2022-09-23T20:54:23.978Z,11.20
2022-09-23T20:56:51.866Z,11.20
2022-09-23T20:59:19.810Z,11.20
2022-09-23T21:01:48.496Z,11.10
2022-09-23T21:04:16.591Z,11.10
2022-09-23T21:06:44.446Z,11.20
2022-09-23T21:09:12.359Z,11.20
2022-09-23T21:11:40.325Z,11.20
2022-09-23T21:14:15.804Z,11.30
2022-09-23T21:16:43.860Z,11.20
2022-09-23T21:19:11.714Z,11.30
2022-09-23T21:21:40.450Z,11.20
2022-09-23T21:24:39.780Z,11.10
2022-09-23T21:26:56.413Z,11.00
2022-09-23T21:29:24.403Z,10.80
2022-09-23T21:31:52.324Z,10.80
2022-09-23T21:34:20.492Z,10.90
2022-09-23T21:36:49.180Z,10.90
2022-09-23T21:39:17.081Z,11.00
2022-09-23T21:41:49.550Z,11.00
2022-09-23T21:44:18.290Z,11.00
2022-09-23T21:46:46.153Z,11.00
2022-09-23T21:49:14.317Z,11.00
2022-09-23T21:51:42.689Z,10.90
2022-09-23T21:54:16.927Z,10.90
2022-09-23T21:56:45.648Z,11.00
2022-09-23T21:59:14.011Z,11.00
2022-09-23T22:01:47.486Z,11.00
2022-09-23T22:04:19.801Z,11.00
2022-09-23T22:06:47.896Z,10.90
2022-09-23T22:09:18.583Z,10.90
2022-09-23T22:12:09.704Z,10.90
2022-09-23T22:14:37.977Z,10.90
2022-09-23T22:17:09.112Z,11.00
2022-09-23T22:19:46.453Z,11.00
2022-09-23T22:22:16.503Z,11.00
2022-09-23T22:24:45.977Z,11.00
2022-09-23T22:27:16.055Z,10.90
2022-09-23T22:30:05.201Z,10.80
2022-09-23T22:32:42.083Z,10.60
2022-09-23T22:35:17.943Z,10.60
2022-09-23T22:37:46.770Z,10.60
2022-09-23T22:40:16.135Z,10.70
2022-09-23T22:42:44.740Z,10.60
2022-09-23T22:45:13.157Z,10.60
2022-09-23T22:47:45.574Z,10.60
2022-09-23T22:50:15.506Z,10.70
2022-09-23T22:52:43.648Z,10.60
2022-09-23T22:55:12.471Z,10.70
2022-09-23T22:57:40.439Z,10.60
2022-09-23T23:00:10.482Z,10.60
2022-09-23T23:02:38.396Z,10.60
2022-09-23T23:05:06.746Z,10.70
2022-09-23T23:07:37.160Z,10.70
2022-09-23T23:10:05.796Z,10.80
2022-09-23T23:12:34.639Z,10.80
2022-09-23T23:15:02.587Z,10.80
2022-09-23T23:17:30.945Z,10.80
2022-09-23T23:19:59.077Z,10.80
2022-09-23T23:22:29.971Z,10.80
2022-09-23T23:24:57.968Z,10.70
2022-09-23T23:27:25.808Z,10.70
2022-09-23T23:29:53.701Z,10.70
2022-09-23T23:32:21.553Z,10.70
2022-09-23T23:34:49.418Z,10.70
2022-09-23T23:37:20.748Z,10.70
2022-09-23T23:39:49.189Z,10.70
2022-09-23T23:42:17.108Z,10.70
2022-09-23T23:44:45.432Z,10.70
2022-09-23T23:47:13.608Z,10.60
2022-09-23T23:49:41.491Z,10.60
2022-09-23T23:52:12.529Z,10.60
2022-09-23T23:54:40.476Z,10.60
2022-09-23T23:57:11.421Z,10.60
2022-09-23T23:59:46.047Z,10.60
